Time;durP1;ratioP1;P1;durP2;ratioP2;P2;SDS_P1;SDS_P2;PMS_P1;PMS_P2;Temp;Humidity;BMP_temperature;BMP_pressure;BME280_temperature;BME280_humidity;BME280_pressure;Samples;Min_cycle;Max_cycle;Signal;HPM_P1;HPM_P2
2022/02/27 00:01:06;;;;;;;15.77;7.77;;;;;;;-2.10;100.00;102777.25;5081334;28;20198;-74
2022/02/27 00:03:33;;;;;;;14.83;7.70;;;;;;;-2.11;100.00;102778.00;5080486;28;20459;-73
2022/02/27 00:06:00;;;;;;;14.70;7.97;;;;;;;-2.25;100.00;102782.31;5079408;28;20198;-73
2022/02/27 00:08:26;;;;;;;15.10;7.90;;;;;;;-2.48;100.00;102778.34;5079982;28;20222;-73
2022/02/27 00:10:53;;;;;;;15.83;8.07;;;;;;;-2.53;100.00;102782.31;5077630;28;20463;-73
2022/02/27 00:13:20;;;;;;;18.13;8.80;;;;;;;-2.52;100.00;102784.94;5077228;28;20190;-74
2022/02/27 00:15:46;;;;;;;11.70;8.10;;;;;;;-2.29;100.00;102788.00;5076673;28;20821;-74
2022/02/27 00:18:13;;;;;;;15.83;8.50;;;;;;;-2.25;100.00;102786.53;5081916;28;20476;-74
2022/02/27 00:20:41;;;;;;;19.70;9.33;;;;;;;-2.48;100.00;102796.22;5079219;28;20191;-72
2022/02/27 00:23:07;;;;;;;16.27;9.20;;;;;;;-2.53;100.00;102790.84;5078598;28;20480;-74
2022/02/27 00:25:33;;;;;;;17.43;9.33;;;;;;;-2.61;100.00;102791.16;5069560;28;20456;-73
2022/02/27 00:28:01;;;;;;;16.23;9.63;;;;;;;-2.53;100.00;102795.09;5079752;28;20218;-73
2022/02/27 00:30:27;;;;;;;13.23;8.33;;;;;;;-2.67;100.00;102804.44;5075547;28;20856;-74
2022/02/27 00:32:54;;;;;;;19.30;9.57;;;;;;;-2.68;100.00;102792.44;5084031;28;20560;-73
2022/02/27 00:35:23;;;;;;;19.50;9.10;;;;;;;-2.60;100.00;102801.47;5112175;27;20455;-74
2022/02/27 00:37:51;;;;;;;16.97;8.47;;;;;;;-2.51;100.00;102794.38;5078407;28;20477;-73
2022/02/27 00:40:18;;;;;;;14.93;9.27;;;;;;;-2.48;100.00;102796.22;5068858;28;20198;-73
2022/02/27 00:42:44;;;;;;;13.87;9.20;;;;;;;-2.51;100.00;102796.94;5067864;28;20451;-74
2022/02/27 00:45:11;;;;;;;19.77;9.77;;;;;;;-2.54;100.00;102794.16;5068475;28;20475;-74
2022/02/27 00:47:38;;;;;;;22.60;9.70;;;;;;;-2.47;100.00;102782.66;5094295;27;20513;-74
2022/02/27 00:50:05;;;;;;;14.20;9.00;;;;;;;-2.52;100.00;102787.47;5073986;28;20486;-73
2022/02/27 00:52:31;;;;;;;19.27;9.53;;;;;;;-2.45;100.00;102787.88;5111864;27;20467;-74
2022/02/27 00:54:59;;;;;;;17.20;9.03;;;;;;;-2.50;100.00;102792.69;5079597;28;20462;-74
2022/02/27 00:57:28;;;;;;;16.20;9.00;;;;;;;-2.55;100.00;102783.84;5076529;28;20481;-74
2022/02/27 00:59:55;;;;;;;14.27;8.37;;;;;;;-2.76;100.00;102789.41;5082424;28;21203;-74
2022/02/27 01:02:21;;;;;;;17.50;8.40;;;;;;;-2.97;100.00;102777.81;5112859;27;20462;-71
2022/02/27 01:04:48;;;;;;;16.10;8.33;;;;;;;-2.98;100.00;102784.59;5087558;28;20474;-73
2022/02/27 01:07:15;;;;;;;16.00;9.10;;;;;;;-2.94;100.00;102780.56;5076952;28;20492;-72
2022/02/27 01:09:44;;;;;;;19.33;9.10;;;;;;;-2.88;100.00;102781.84;5111081;28;20493;-74
2022/02/27 01:12:12;;;;;;;17.73;8.77;;;;;;;-2.77;100.00;102779.09;5075248;28;20444;-74
2022/02/27 01:14:38;;;;;;;19.00;9.93;;;;;;;-3.02;100.00;102781.78;5095588;28;21122;-75
2022/02/27 01:17:06;;;;;;;20.23;10.27;;;;;;;-3.11;100.00;102771.88;5123012;27;20523;-74
2022/02/27 01:19:33;;;;;;;24.87;12.67;;;;;;;-3.06;100.00;102771.38;5080661;28;20464;-74
2022/02/27 01:21:59;;;;;;;28.73;12.63;;;;;;;-2.97;100.00;102778.72;5110368;28;21140;-74
2022/02/27 01:24:26;;;;;;;28.40;11.40;;;;;;;-2.92;100.00;102777.34;5118165;27;20463;-72
2022/02/27 01:26:53;;;;;;;19.70;11.77;;;;;;;-2.92;100.00;102768.78;5095636;28;20485;-74
2022/02/27 01:29:21;;;;;;;20.17;11.33;;;;;;;-2.97;100.00;102767.59;5085869;28;20504;-74
2022/02/27 01:31:49;;;;;;;19.33;11.70;;;;;;;-2.94;100.00;102771.22;5081920;28;20451;-73
2022/02/27 01:34:15;;;;;;;19.70;10.60;;;;;;;-2.98;100.00;102770.97;5118295;27;21031;-74
2022/02/27 01:36:43;;;;;;;17.13;10.40;;;;;;;-3.04;100.00;102761.25;5108235;28;20455;-74
2022/02/27 01:39:09;;;;;;;23.23;10.03;;;;;;;-3.11;100.00;102764.19;5080876;28;20517;-74
2022/02/27 01:41:37;;;;;;;18.67;10.10;;;;;;;-2.96;100.00;102765.16;5080582;28;20458;-74
2022/02/27 01:44:04;;;;;;;24.93;10.03;;;;;;;-2.94;100.00;102770.38;5114941;27;20832;-74
2022/02/27 01:46:33;;;;;;;28.90;14.23;;;;;;;-2.90;100.00;102775.78;5077677;28;20526;-73
2022/02/27 01:48:59;;;;;;;24.87;12.13;;;;;;;-2.98;100.00;102769.28;5075511;28;20498;-73
2022/02/27 01:51:25;;;;;;;33.53;12.83;;;;;;;-2.99;100.00;102777.75;5087551;28;20467;-74
2022/02/27 01:53:52;;;;;;;21.53;10.37;;;;;;;-3.09;100.00;102770.28;5094430;28;20475;-74
2022/02/27 01:56:19;;;;;;;24.03;11.33;;;;;;;-3.17;100.00;102771.44;5077335;28;21077;-73
2022/02/27 01:58:45;;;;;;;22.00;10.30;;;;;;;-3.19;100.00;102776.44;5092680;28;20584;-74
2022/02/27 02:01:12;;;;;;;21.43;10.33;;;;;;;-3.21;100.00;102775.47;5094262;28;20458;-72
2022/02/27 02:03:40;;;;;;;20.40;10.13;;;;;;;-3.19;100.00;102776.44;5115629;27;20455;-74
2022/02/27 02:06:07;;;;;;;12.63;7.80;;;;;;;-3.24;100.00;102776.19;5078645;28;20973;-72
2022/02/27 02:08:33;;;;;;;12.87;8.57;;;;;;;-3.30;100.00;102769.78;5080816;28;20537;-72
2022/02/27 02:11:04;;;;;;;14.63;8.27;;;;;;;-3.26;100.00;102770.06;5110513;28;20458;-73
2022/02/27 02:13:30;;;;;;;17.63;8.83;;;;;;;-3.36;100.00;102766.81;5111551;27;20465;-73
2022/02/27 02:15:57;;;;;;;14.97;8.00;;;;;;;-3.22;100.00;102763.47;5108867;27;21032;-74
2022/02/27 02:18:31;;;;;;;21.07;9.37;;;;;;;-3.41;100.00;102774.19;5109885;28;20488;-74
2022/02/27 02:20:59;;;;;;;19.93;8.30;;;;;;;-3.49;100.00;102770.25;5110995;28;20450;-74
2022/02/27 02:23:26;;;;;;;16.00;7.97;;;;;;;-3.51;100.00;102774.38;5079802;28;21070;-73
2022/02/27 02:25:54;;;;;;;13.73;8.37;;;;;;;-3.49;100.00;102766.03;5085857;28;20458;-74
2022/02/27 02:28:21;;;;;;;17.73;8.13;;;;;;;-3.43;100.00;102770.63;5075799;28;20535;-74
2022/02/27 02:30:48;;;;;;;15.30;8.80;;;;;;;-3.48;100.00;102775.47;5082619;28;20476;-72
2022/02/27 02:33:14;;;;;;;16.43;8.67;;;;;;;-3.64;100.00;102773.56;5112829;27;20457;-72
2022/02/27 02:35:41;;;;;;;19.27;9.43;;;;;;;-3.63;100.00;102775.31;5079037;28;20454;-73
2022/02/27 02:38:09;;;;;;;15.37;8.20;;;;;;;-3.63;100.00;102777.00;5077767;28;20478;-74
2022/02/27 02:40:35;;;;;;;18.97;9.87;;;;;;;-3.50;100.00;102778.66;5103134;28;21075;-74
2022/02/27 02:43:02;;;;;;;21.80;8.43;;;;;;;-3.52;100.00;102775.13;5094830;27;20461;-74
2022/02/27 02:45:29;;;;;;;18.07;10.13;;;;;;;-3.64;100.00;102773.56;5063445;28;20462;-74
2022/02/27 02:47:56;;;;;;;19.27;9.00;;;;;;;-3.59;100.00;102773.84;5060431;28;20482;-74
2022/02/27 02:50:25;;;;;;;17.87;9.57;;;;;;;-3.55;100.00;102770.75;5067779;28;20462;-73
2022/02/27 02:52:52;;;;;;;21.40;9.70;;;;;;;-3.55;100.00;102775.84;5073544;28;20484;-73
2022/02/27 02:55:20;;;;;;;18.67;8.97;;;;;;;-3.45;100.00;102780.75;5110517;27;20479;-73
2022/02/27 02:57:47;;;;;;;30.67;10.13;;;;;;;-3.45;100.00;102774.75;5070867;28;20477;-73
2022/02/27 03:00:14;;;;;;;19.03;9.03;;;;;;;-3.53;100.00;102783.59;5071960;28;20444;-73
2022/02/27 03:02:40;;;;;;;21.97;8.97;;;;;;;-3.58;100.00;102782.41;5080408;28;20544;-73
2022/02/27 03:05:07;;;;;;;19.83;9.87;;;;;;;-3.52;100.00;102777.69;5071492;28;20544;-73
2022/02/27 03:07:34;;;;;;;34.70;10.03;;;;;;;-3.60;100.00;102773.78;5083224;28;20551;-74
2022/02/27 03:10:01;;;;;;;19.63;8.37;;;;;;;-3.57;100.00;102779.97;5067147;28;20474;-73
2022/02/27 03:12:28;;;;;;;19.53;9.30;;;;;;;-3.63;100.00;102774.44;5093429;28;20468;-74
2022/02/27 03:14:55;;;;;;;19.83;9.17;;;;;;;-3.57;100.00;102777.41;5072476;28;20934;-74
2022/02/27 03:17:21;;;;;;;25.10;9.57;;;;;;;-3.68;100.00;102781.78;5067640;28;20469;-72
2022/02/27 03:19:48;;;;;;;18.60;8.73;;;;;;;-3.78;100.00;102781.06;5078018;28;20463;-74
2022/02/27 03:22:14;;;;;;;24.50;9.70;;;;;;;-3.76;100.00;102776.94;5075258;28;20447;-73
2022/02/27 03:24:40;;;;;;;23.63;9.50;;;;;;;-3.74;100.00;102786.47;5077924;28;20445;-73
2022/02/27 03:27:07;;;;;;;22.27;9.93;;;;;;;-3.73;100.00;102780.63;5078377;28;20457;-73
2022/02/27 03:29:35;;;;;;;19.27;9.50;;;;;;;-3.73;100.00;102783.16;5078344;28;20824;-74
2022/02/27 03:32:01;;;;;;;21.50;9.70;;;;;;;-3.79;100.00;102781.88;5082920;28;20448;-72
2022/02/27 03:34:27;;;;;;;23.60;11.03;;;;;;;-3.77;100.00;102793.91;5079627;28;20454;-74
2022/02/27 03:36:54;;;;;;;19.83;11.17;;;;;;;-3.82;100.00;102793.63;5080988;28;20441;-74
2022/02/27 03:39:20;;;;;;;26.77;11.37;;;;;;;-3.75;100.00;102794.03;5080169;28;20558;-73
2022/02/27 03:41:47;;;;;;;30.87;11.20;;;;;;;-3.86;100.00;102794.19;5078778;28;20457;-73
2022/02/27 03:44:13;;;;;;;28.13;10.37;;;;;;;-3.78;100.00;102801.44;5075109;28;20468;-73
2022/02/27 03:46:41;;;;;;;25.80;10.70;;;;;;;-3.67;100.00;102790.31;5072566;28;20457;-73
2022/02/27 03:49:08;;;;;;;23.20;9.70;;;;;;;-3.67;100.00;102803.06;5071731;28;20466;-73
2022/02/27 03:51:36;;;;;;;24.23;9.57;;;;;;;-3.64;100.00;102803.25;5068594;28;20481;-74
2022/02/27 03:54:04;;;;;;;30.43;9.87;;;;;;;-3.51;100.00;102808.41;5101807;27;20466;-74
2022/02/27 03:56:30;;;;;;;27.63;10.03;;;;;;;-3.53;100.00;102807.41;5079955;28;20933;-73
2022/02/27 03:58:57;;;;;;;26.90;10.60;;;;;;;-3.46;100.00;102803.63;5106882;28;20473;-74
2022/02/27 04:01:24;;;;;;;34.50;11.13;;;;;;;-3.36;100.00;102812.75;5070534;28;20948;-74
2022/02/27 04:03:54;;;;;;;36.23;11.33;;;;;;;-3.29;100.00;102810.72;5079304;28;20456;-74
2022/02/27 04:06:21;;;;;;;42.30;11.10;;;;;;;-3.16;100.00;102806.41;5071872;28;21117;-74
2022/02/27 04:08:47;;;;;;;37.80;10.97;;;;;;;-3.13;100.00;102804.94;5071417;28;20605;-74
2022/02/27 04:11:14;;;;;;;26.00;10.30;;;;;;;-3.14;100.00;102805.72;5102571;28;20456;-74
2022/02/27 04:13:40;;;;;;;34.37;10.50;;;;;;;-3.11;100.00;102805.03;5065412;28;20462;-73
2022/02/27 04:16:06;;;;;;;37.83;12.10;;;;;;;-3.10;100.00;102804.22;5086341;28;20471;-73
2022/02/27 04:18:33;;;;;;;44.50;15.50;;;;;;;-3.08;100.00;102813.78;5075475;28;20491;-74
2022/02/27 04:21:00;;;;;;;50.23;15.37;;;;;;;-3.02;100.00;102809.84;5084063;28;20461;-74
2022/02/27 04:23:27;;;;;;;32.60;15.57;;;;;;;-3.02;100.00;102813.28;5074858;28;20529;-74
2022/02/27 04:25:53;;;;;;;57.57;16.23;;;;;;;-3.01;100.00;102811.59;5070133;28;20533;-74
2022/02/27 04:28:20;;;;;;;60.43;16.37;;;;;;;-2.91;100.00;102811.41;5071367;28;20583;-73
2022/02/27 04:30:46;;;;;;;56.03;15.13;;;;;;;-2.94;100.00;102818.88;5089945;28;20468;-73
2022/02/27 04:33:12;;;;;;;74.70;14.33;;;;;;;-3.02;100.00;102813.28;5075332;28;20460;-73
2022/02/27 04:35:39;;;;;;;48.37;13.17;;;;;;;-2.97;100.00;102823.78;5081715;28;20451;-74
2022/02/27 04:38:07;;;;;;;49.97;13.30;;;;;;;-2.85;100.00;102822.00;5076661;28;20229;-74
2022/02/27 04:40:33;;;;;;;63.50;14.07;;;;;;;-2.96;100.00;102823.88;5066085;28;20578;-74
2022/02/27 04:43:01;;;;;;;62.47;12.57;;;;;;;-3.08;100.00;102820.53;5065985;28;20456;-74
2022/02/27 04:45:27;;;;;;;63.10;12.27;;;;;;;-3.09;100.00;102816.22;5082076;28;20452;-73
2022/02/27 04:47:53;;;;;;;36.53;10.80;;;;;;;-3.12;100.00;102818.56;5068816;28;20218;-74
2022/02/27 04:50:20;;;;;;;30.43;11.20;;;;;;;-3.13;100.00;102810.03;5060352;28;20211;-74
2022/02/27 04:52:47;;;;;;;43.57;11.77;;;;;;;-3.07;100.00;102820.63;5070903;28;20998;-73
2022/02/27 04:55:14;;;;;;;38.17;11.63;;;;;;;-2.93;100.00;102824.06;5070097;28;20462;-74
2022/02/27 04:57:41;;;;;;;30.20;11.77;;;;;;;-3.04;100.00;102822.50;5069942;28;20248;-73
2022/02/27 05:00:09;;;;;;;27.97;11.83;;;;;;;-2.96;100.00;102834.09;5076684;28;20202;-74
2022/02/27 05:02:35;;;;;;;26.83;10.67;;;;;;;-3.09;100.00;102829.00;5068956;28;20204;-74
2022/02/27 05:05:02;;;;;;;28.50;10.50;;;;;;;-3.14;100.00;102836.34;5067694;28;20564;-73
2022/02/27 05:07:29;;;;;;;21.00;10.57;;;;;;;-3.05;100.00;102839.47;5072003;28;20209;-73
2022/02/27 05:09:55;;;;;;;24.50;10.33;;;;;;;-3.10;100.00;102837.41;5071081;28;20229;-73
2022/02/27 05:12:23;;;;;;;30.07;10.33;;;;;;;-3.07;100.00;102846.16;5072127;28;20213;-73
2022/02/27 05:14:50;;;;;;;25.50;10.20;;;;;;;-3.11;100.00;102841.66;5072164;28;20195;-74
2022/02/27 05:17:16;;;;;;;24.23;10.47;;;;;;;-3.10;100.00;102839.97;5070965;28;20468;-74
2022/02/27 05:19:43;;;;;;;24.03;10.83;;;;;;;-3.19;100.00;102839.38;5069415;28;20195;-74
2022/02/27 05:22:09;;;;;;;23.20;10.07;;;;;;;-3.09;100.00;102845.19;5063057;28;20199;-74
2022/02/27 05:24:35;;;;;;;33.33;10.70;;;;;;;-3.12;100.00;102842.41;5068530;28;20216;-73
2022/02/27 05:27:02;;;;;;;31.03;10.53;;;;;;;-3.16;100.00;102840.47;5064873;28;20590;-74
2022/02/27 05:29:30;;;;;;;25.03;10.70;;;;;;;-3.01;100.00;102852.44;5062256;28;20575;-74
2022/02/27 05:31:56;;;;;;;26.20;10.67;;;;;;;-3.00;100.00;102851.69;5071165;28;20203;-74
2022/02/27 05:34:23;;;;;;;36.83;13.20;;;;;;;-3.01;100.00;102860.09;5090690;28;20209;-73
2022/02/27 05:36:49;;;;;;;26.67;11.70;;;;;;;-3.02;100.00;102858.34;5070118;28;20202;-73
2022/02/27 05:39:16;;;;;;;21.00;10.13;;;;;;;-3.00;100.00;102859.34;5077732;28;20227;-75
2022/02/27 05:41:43;;;;;;;30.07;10.93;;;;;;;-2.90;100.00;102860.03;5087125;28;20205;-73
2022/02/27 05:44:09;;;;;;;24.50;10.73;;;;;;;-2.79;100.00;102862.38;5069732;28;20714;-74
2022/02/27 05:46:37;;;;;;;18.80;9.90;;;;;;;-2.87;100.00;102856.78;5067709;28;20555;-74
2022/02/27 05:49:03;;;;;;;27.10;10.43;;;;;;;-2.69;100.00;102867.28;5066588;28;20218;-74
2022/02/27 05:51:30;;;;;;;28.80;11.47;;;;;;;-2.80;100.00;102863.16;5068031;28;20199;-72
2022/02/27 05:53:56;;;;;;;30.10;11.07;;;;;;;-2.76;100.00;102870.22;5072686;28;20232;-74
2022/02/27 05:56:22;;;;;;;36.90;10.57;;;;;;;-2.64;100.00;102875.25;5065449;28;20194;-73
2022/02/27 05:58:51;;;;;;;25.67;10.60;;;;;;;-2.57;100.00;102868.09;5070543;28;20249;-74
2022/02/27 06:01:17;;;;;;;27.83;11.43;;;;;;;-2.58;100.00;102867.97;5067118;28;20239;-74
2022/02/27 06:03:46;;;;;;;23.80;11.03;;;;;;;-2.55;100.00;102874.16;5067594;28;20225;-73
2022/02/27 06:06:12;;;;;;;20.93;10.07;;;;;;;-2.55;100.00;102875.81;5071539;28;20202;-74
2022/02/27 06:08:38;;;;;;;28.43;11.67;;;;;;;-2.60;100.00;102870.44;5071108;28;20214;-74
2022/02/27 06:11:05;;;;;;;24.53;11.33;;;;;;;-2.63;100.00;102870.22;5067784;28;20238;-74
2022/02/27 06:13:31;;;;;;;29.47;10.70;;;;;;;-2.64;100.00;102873.56;5074970;28;20221;-74
2022/02/27 06:15:58;;;;;;;32.13;11.77;;;;;;;-2.67;100.00;102874.25;5074478;28;20213;-73
2022/02/27 06:18:24;;;;;;;35.80;11.33;;;;;;;-2.62;100.00;102881.31;5070690;28;20214;-73
2022/02/27 06:20:52;;;;;;;27.83;10.83;;;;;;;-2.59;100.00;102877.28;5083695;28;20197;-74
2022/02/27 06:23:18;;;;;;;27.00;10.20;;;;;;;-2.49;100.00;102881.34;5070554;28;20686;-74
2022/02/27 06:25:44;;;;;;;32.03;10.53;;;;;;;-2.54;100.00;102880.16;5072220;28;20202;-74
2022/02/27 06:28:11;;;;;;;27.53;10.83;;;;;;;-2.48;100.00;102884.00;5074104;28;20224;-73
2022/02/27 06:30:37;;;;;;;32.17;10.43;;;;;;;-2.49;100.00;102879.66;5072056;28;20219;-73
2022/02/27 06:33:04;;;;;;;30.60;10.17;;;;;;;-2.42;100.00;102880.94;5070291;28;20210;-73
2022/02/27 06:35:30;;;;;;;33.67;11.03;;;;;;;-2.38;100.00;102889.66;5062428;28;20737;-74
2022/02/27 06:37:58;;;;;;;34.93;11.07;;;;;;;-2.45;100.00;102895.19;5079622;28;20577;-74
2022/02/27 06:40:25;;;;;;;24.73;9.73;;;;;;;-2.45;100.00;102892.63;5076644;28;20201;-72
2022/02/27 06:42:52;;;;;;;24.27;9.63;;;;;;;-2.45;100.00;102900.28;5071817;28;20735;-74
2022/02/27 06:45:19;;;;;;;26.53;10.33;;;;;;;-2.41;100.00;102902.25;5065079;28;20198;-74
2022/02/27 06:47:45;;;;;;;31.53;9.87;;;;;;;-2.34;100.00;102894.19;5069400;28;20245;-74
2022/02/27 06:50:13;;;;;;;24.37;10.23;;;;;;;-2.22;100.00;102894.94;5065733;28;20625;-74
2022/02/27 06:52:41;;;;;;;26.30;10.00;;;;;;;-2.10;100.00;102905.06;5059117;28;20556;-74
2022/02/27 06:55:10;;;;;;;30.60;9.93;;;;;;;-1.98;100.00;102904.94;5069381;28;20217;-74
2022/02/27 06:57:36;;;;;;;33.63;11.33;;;;;;;-2.00;100.00;102904.84;5072031;28;20252;-74
2022/02/27 07:00:06;;;;;;;41.13;12.47;;;;;;;-1.94;100.00;102914.56;5072530;28;20201;-74
2022/02/27 07:02:32;;;;;;;36.23;12.60;;;;;;;-1.83;100.00;102916.13;5067128;28;20600;-74
2022/02/27 07:04:58;;;;;;;47.80;13.70;;;;;;;-1.87;100.00;102918.38;5067392;28;20210;-73
2022/02/27 07:07:25;;;;;;;41.80;12.43;;;;;;;-1.87;100.00;102921.81;5071980;28;20221;-73
2022/02/27 07:09:51;;;;;;;61.80;13.70;;;;;;;-1.91;100.00;102920.75;5067174;28;20229;-73
2022/02/27 07:12:19;;;;;;;26.90;13.10;;;;;;;-1.78;100.00;102917.25;5065088;28;20206;-73
2022/02/27 07:14:46;;;;;;;85.40;15.40;;;;;;;-1.87;100.00;102926.94;5070841;28;20274;-73
2022/02/27 07:17:12;;;;;;;99.97;21.03;;;;;;;-2.00;100.00;102930.41;5073017;28;20208;-73
2022/02/27 07:19:39;;;;;;;54.73;16.87;;;;;;;-1.91;100.00;102930.97;5087480;28;20210;-73
2022/02/27 07:22:06;;;;;;;59.87;16.53;;;;;;;-1.88;100.00;102937.06;5064993;28;20210;-74
2022/02/27 07:24:32;;;;;;;83.73;18.87;;;;;;;-1.99;100.00;102942.38;5063519;28;20188;-71
2022/02/27 07:26:59;;;;;;;82.23;18.10;;;;;;;-2.02;100.00;102933.66;5084825;28;20209;-74
2022/02/27 07:29:27;;;;;;;84.63;19.90;;;;;;;-2.06;100.00;102944.47;5078239;28;20222;-73
2022/02/27 07:31:54;;;;;;;55.97;18.73;;;;;;;-1.98;100.00;102940.75;5084253;28;20194;-74
2022/02/27 07:34:20;;;;;;;54.67;18.53;;;;;;;-1.87;100.00;102949.06;5079939;28;20205;-74
2022/02/27 07:36:49;;;;;;;62.67;19.77;;;;;;;-1.78;100.00;102957.31;5088929;28;20205;-74
2022/02/27 07:39:16;;;;;;;83.73;24.33;;;;;;;-1.74;100.00;102956.72;5071841;28;20222;-71
2022/02/27 07:41:42;;;;;;;97.80;27.67;;;;;;;-1.74;100.00;102959.28;5075730;28;20190;-73
2022/02/27 07:44:09;;;;;;;96.07;30.00;;;;;;;-1.70;100.00;102966.34;5086208;28;20190;-73
2022/02/27 07:46:37;;;;;;;91.20;28.80;;;;;;;-1.58;100.00;102961.09;5120910;28;20904;-72
2022/02/27 07:49:03;;;;;;;89.83;31.63;;;;;;;-1.57;100.00;102960.28;5083412;28;20764;-74
2022/02/27 07:51:30;;;;;;;74.00;29.90;;;;;;;-1.58;100.00;102959.41;5082423;28;20221;-71
2022/02/27 07:53:57;;;;;;;90.13;22.37;;;;;;;-1.49;100.00;102961.66;5080276;28;20245;-73
2022/02/27 07:56:23;;;;;;;109.20;24.47;;;;;;;-1.57;100.00;102960.28;5081532;28;20197;-73
2022/02/27 07:58:51;;;;;;;97.83;25.93;;;;;;;-1.52;100.00;102954.66;5081928;28;20728;-72
2022/02/27 08:01:18;;;;;;;81.80;24.10;;;;;;;-1.54;100.00;102955.38;5083055;28;20186;-72
2022/02/27 08:03:46;;;;;;;89.30;21.87;;;;;;;-1.48;100.00;102950.59;5096458;28;20209;-71
2022/02/27 08:06:13;;;;;;;60.13;19.37;;;;;;;-1.40;100.00;102958.78;5070924;28;20199;-74
2022/02/27 08:08:39;;;;;;;56.83;21.03;;;;;;;-1.19;100.00;102959.16;5065939;28;20225;-74
2022/02/27 08:11:06;;;;;;;51.43;19.67;;;;;;;-1.05;100.00;102960.00;5062237;28;20225;-74
2022/02/27 08:13:33;;;;;;;50.33;18.67;;;;;;;-0.93;100.00;102968.38;5062029;28;20198;-73
2022/02/27 08:15:59;;;;;;;39.30;17.50;;;;;;;-0.96;100.00;102961.41;5056727;28;20210;-74
2022/02/27 08:18:26;;;;;;;45.87;17.07;;;;;;;-0.98;100.00;102965.53;5065226;28;20215;-73
2022/02/27 08:20:53;;;;;;;61.30;15.43;;;;;;;-0.94;100.00;102964.03;5075293;28;20195;-72
2022/02/27 08:23:20;;;;;;;70.37;18.30;;;;;;;-1.07;100.00;102970.13;5084166;28;20195;-74
2022/02/27 08:25:47;;;;;;;84.20;20.07;;;;;;;-1.10;100.00;102969.94;5084028;28;20221;-73
2022/02/27 08:28:13;;;;;;;96.57;20.10;;;;;;;-1.13;100.00;102964.63;5082791;28;20582;-74
2022/02/27 08:30:40;;;;;;;72.93;21.00;;;;;;;-1.05;100.00;102967.66;5077875;28;20248;-71
2022/02/27 08:33:06;;;;;;;41.47;17.90;;;;;;;-0.97;100.00;102963.88;5081369;28;20212;-73
2022/02/27 08:35:33;;;;;;;40.77;14.50;;;;;;;-0.91;100.00;102964.25;5066195;28;20225;-73
2022/02/27 08:38:01;;;;;;;47.00;15.37;;;;;;;-0.89;100.00;102969.44;5070626;28;20225;-73
2022/02/27 08:40:28;;;;;;;63.97;19.57;;;;;;;-0.97;100.00;102968.97;5082373;28;20204;-74
2022/02/27 08:42:56;;;;;;;50.03;18.37;;;;;;;-0.68;100.00;102973.25;5077830;28;20194;-74
2022/02/27 08:45:23;;;;;;;39.30;18.00;;;;;;;-0.60;100.00;102977.16;5064843;28;20198;-74
2022/02/27 08:47:50;;;;;;;57.10;17.93;;;;;;;-0.64;100.00;102977.75;5065111;28;20223;-74
2022/02/27 08:50:16;;;;;;;43.97;15.30;;;;;;;-0.68;100.00;102982.63;5065652;28;20223;-73
2022/02/27 08:52:44;;;;;;;44.87;15.03;;;;;;;-0.73;100.00;102982.34;5069201;28;20225;-73
2022/02/27 08:55:15;;;;;;;39.23;15.30;;;;;;;-0.54;100.00;102985.97;5073937;28;20202;-73
2022/02/27 08:57:42;;;;;;;36.33;15.70;;;;;;;-0.29;100.00;102986.56;5069122;28;20228;-74
2022/02/27 09:00:11;;;;;;;34.77;17.00;;;;;;;-0.08;100.00;102981.75;5068766;28;20198;-74
2022/02/27 09:02:37;;;;;;;39.27;15.87;;;;;;;-0.23;100.00;102986.91;5072900;28;20198;-73
2022/02/27 09:05:06;;;;;;;38.83;16.40;;;;;;;-0.40;100.00;102983.38;5067158;28;20201;-74
2022/02/27 09:07:32;;;;;;;41.27;15.13;;;;;;;-0.30;100.00;102978.78;5059828;28;20248;-73
2022/02/27 09:09:59;;;;;;;33.97;16.13;;;;;;;-0.18;100.00;102982.03;5070939;28;20206;-73
2022/02/27 09:12:29;;;;;;;32.93;15.93;;;;;;;-0.17;100.00;102985.50;5077063;28;20210;-74
2022/02/27 09:14:56;;;;;;;36.83;15.03;;;;;;;-0.17;100.00;102996.63;5080515;28;20575;-73
2022/02/27 09:17:23;;;;;;;32.63;14.93;;;;;;;-0.11;100.00;102996.06;5078231;28;20195;-73
2022/02/27 09:19:49;;;;;;;33.37;15.23;;;;;;;0.01;100.00;102993.31;5085934;28;20200;-73
2022/02/27 09:22:19;;;;;;;32.00;15.93;;;;;;;0.03;100.00;102990.03;5067815;28;20195;-74
2022/02/27 09:24:46;;;;;;;39.93;16.53;;;;;;;0.03;100.00;102987.47;5068455;28;20220;-73
2022/02/27 09:27:12;;;;;;;36.97;15.40;;;;;;;0.12;100.00;102995.69;5069813;28;20208;-73
2022/02/27 09:29:40;;;;;;;27.63;14.20;;;;;;;0.15;100.00;102993.25;5078175;28;20218;-72
2022/02/27 09:32:07;;;;;;;30.33;14.67;;;;;;;0.25;100.00;102994.66;5077954;28;20220;-74
2022/02/27 09:34:33;;;;;;;34.47;14.63;;;;;;;0.18;100.00;102995.13;5068882;28;20563;-74
2022/02/27 09:36:59;;;;;;;27.33;14.37;;;;;;;0.16;100.00;102996.72;5068691;28;20196;-73
2022/02/27 09:39:28;;;;;;;30.10;14.13;;;;;;;0.38;100.00;103001.31;5065787;28;20219;-73
2022/02/27 09:41:55;;;;;;;26.33;14.10;;;;;;;0.35;100.00;103001.16;5087047;28;20282;-73
2022/02/27 09:44:22;;;;;;;30.57;13.97;;;;;;;0.38;100.00;102994.50;5084703;28;20240;-72
2022/02/27 09:46:50;;;;;;;32.03;15.03;;;;;;;0.16;100.00;103000.16;5084195;28;20195;-74
2022/02/27 09:49:17;;;;;;;32.60;13.53;;;;;;;-0.13;100.00;103000.25;5076481;28;20635;-74
2022/02/27 09:51:44;;;;;;;41.40;13.53;;;;;;;-0.06;100.00;103000.66;5066724;28;20218;-74
2022/02/27 09:54:13;;;;;;;27.63;13.80;;;;;;;0.01;100.00;102998.44;5076186;28;20187;-72
2022/02/27 09:56:40;;;;;;;30.30;14.53;;;;;;;-0.13;100.00;103002.81;5081104;28;20618;-74
2022/02/27 09:59:07;;;;;;;28.27;13.40;;;;;;;-0.18;100.00;103002.53;5107013;27;20234;-74
2022/02/27 10:01:33;;;;;;;28.63;13.87;;;;;;;-0.14;100.00;103018.97;5061004;28;20194;-73
2022/02/27 10:04:18;;;;;;;29.33;12.87;;;;;;;-0.17;100.00;103009.44;5070254;28;20205;-74
2022/02/27 10:06:48;;;;;;;27.07;14.33;;;;;;;-0.08;100.00;103012.50;5062725;28;21008;-74
2022/02/27 10:09:22;;;;;;;36.50;16.27;;;;;;;-0.09;100.00;103015.91;5064181;28;20211;-74
2022/02/27 10:11:49;;;;;;;35.47;18.00;;;;;;;0.13;100.00;103017.09;5067289;28;20288;-72
2022/02/27 10:14:24;;;;;;;32.00;15.57;;;;;;;0.26;100.00;103018.63;5066401;28;20214;-74
2022/02/27 10:16:51;;;;;;;36.00;18.57;;;;;;;0.32;100.00;103007.00;5063066;28;20202;-73
2022/02/27 10:19:19;;;;;;;28.73;16.17;;;;;;;0.41;100.00;103013.47;5079984;28;20241;-72
2022/02/27 10:21:46;;;;;;;35.70;15.90;;;;;;;0.42;100.00;103007.50;5064763;28;20197;-73
2022/02/27 10:24:14;;;;;;;31.10;16.40;;;;;;;0.23;100.00;103014.22;5079383;28;20203;-72
2022/02/27 10:26:45;;;;;;;40.27;17.07;;;;;;;0.15;100.00;103010.34;5065493;28;20207;-74
2022/02/27 10:29:14;;;;;;;27.90;15.17;;;;;;;0.29;100.00;103009.41;5075339;28;20305;-74
2022/02/27 10:31:43;;;;;;;27.07;15.37;;;;;;;0.32;100.00;103001.88;5096737;28;20311;-74
2022/02/27 10:34:14;;;;;;;32.23;16.50;;;;;;;0.66;100.00;102995.09;5064817;28;20195;-74
2022/02/27 10:36:59;;;;;;;32.80;17.27;;;;;;;0.75;100.00;102993.88;5100453;27;20571;-74
2022/02/27 10:39:28;;;;;;;34.53;17.03;;;;;;;0.67;100.00;102991.69;5082824;28;20217;-74
2022/02/27 10:41:54;;;;;;;33.77;16.57;;;;;;;0.65;100.00;102989.09;5060800;28;20195;-74
2022/02/27 10:44:23;;;;;;;31.70;17.70;;;;;;;0.65;100.00;102983.94;5068506;28;20650;-74
2022/02/27 10:47:08;;;;;;;32.73;16.80;;;;;;;0.75;100.00;102993.88;5069011;28;20209;-73
2022/02/27 10:49:34;;;;;;;30.27;16.20;;;;;;;0.81;100.00;102995.91;5063588;28;20210;-73
2022/02/27 10:52:16;;;;;;;29.23;15.33;;;;;;;0.75;100.00;102993.88;5065215;28;20222;-74
2022/02/27 10:54:44;;;;;;;25.57;14.47;;;;;;;0.77;100.00;102998.22;5078605;28;20190;-74
2022/02/27 10:57:11;;;;;;;30.20;15.53;;;;;;;0.74;100.00;102999.81;5064549;28;20199;-74
2022/02/27 10:59:41;;;;;;;28.70;15.63;;;;;;;0.66;100.00;102993.41;5069485;28;20866;-73
2022/02/27 11:02:10;;;;;;;25.27;15.00;;;;;;;0.79;100.00;102994.91;5075345;28;20213;-74
2022/02/27 11:04:38;;;;;;;33.57;17.03;;;;;;;0.69;100.00;102993.56;5078099;28;20209;-74